createdAt,value
2022-08-02T00:00:40.917Z,99.90
2022-08-02T00:03:09.080Z,99.90
2022-08-02T00:05:37.380Z,99.90
2022-08-02T00:08:06.084Z,99.90
2022-08-02T00:10:35.542Z,99.90
2022-08-02T00:13:03.652Z,99.90
2022-08-02T00:15:31.848Z,99.90
2022-08-02T00:18:00.007Z,99.90
2022-08-02T00:20:28.094Z,99.90
2022-08-02T00:22:56.087Z,99.90
2022-08-02T00:25:24.287Z,99.90
2022-08-02T00:27:53.835Z,99.90
2022-08-02T00:30:21.977Z,99.90
2022-08-02T00:32:50.050Z,99.90
2022-08-02T00:35:18.415Z,99.90
2022-08-02T00:37:46.503Z,99.90
2022-08-02T00:40:15.173Z,99.90
2022-08-02T00:42:44.210Z,99.90
2022-08-02T00:45:13.804Z,99.90
2022-08-02T00:47:41.821Z,99.90
2022-08-02T00:50:11.086Z,99.90
2022-08-02T00:52:39.097Z,99.90
2022-08-02T00:55:08.375Z,99.90
2022-08-02T00:57:37.073Z,99.90
2022-08-02T01:00:07.165Z,99.90
2022-08-02T01:02:36.604Z,99.90
2022-08-02T01:05:04.734Z,99.90
2022-08-02T01:07:33.137Z,99.90
2022-08-02T01:10:01.241Z,99.90
2022-08-02T01:12:29.421Z,99.90
2022-08-02T01:15:01.741Z,99.90
2022-08-02T01:17:39.944Z,99.90
2022-08-02T01:20:24.796Z,99.90
2022-08-02T01:23:10.962Z,99.90
2022-08-02T01:26:10.428Z,99.90
2022-08-02T01:28:46.656Z,99.90
2022-08-02T01:31:22.202Z,99.90
2022-08-02T01:33:58.237Z,99.90
2022-08-02T01:36:31.254Z,99.90
2022-08-02T01:39:00.703Z,99.90
2022-08-02T01:41:30.376Z,99.90
2022-08-02T01:44:02.823Z,99.90
2022-08-02T01:46:32.798Z,99.90
2022-08-02T01:49:08.458Z,99.90
2022-08-02T01:51:57.461Z,99.90
2022-08-02T01:54:33.027Z,99.90
2022-08-02T01:57:02.462Z,99.90
2022-08-02T01:59:33.317Z,99.90
2022-08-02T02:02:02.689Z,99.90
2022-08-02T02:04:33.325Z,99.90
2022-08-02T02:07:02.845Z,99.90
2022-08-02T02:09:32.947Z,99.90
2022-08-02T02:12:12.028Z,99.90
2022-08-02T02:14:51.403Z,99.90
2022-08-02T02:17:52.638Z,99.90
2022-08-02T02:20:16.113Z,99.90
2022-08-02T02:22:44.661Z,99.90
2022-08-02T02:25:15.047Z,99.90
2022-08-02T02:27:50.860Z,99.90
2022-08-02T02:30:20.775Z,99.90
2022-08-02T02:32:52.215Z,99.90
2022-08-02T02:35:22.664Z,99.90
2022-08-02T02:37:52.320Z,99.90
2022-08-02T02:40:23.362Z,99.90
2022-08-02T02:42:53.030Z,99.90
2022-08-02T02:45:23.739Z,99.90
2022-08-02T02:47:53.841Z,99.90
2022-08-02T02:50:23.639Z,99.90
2022-08-02T02:52:52.310Z,99.90
2022-08-02T02:55:20.642Z,99.90
2022-08-02T02:57:49.142Z,99.90
2022-08-02T03:00:17.994Z,99.90
2022-08-02T03:02:48.358Z,99.90
2022-08-02T03:05:17.334Z,99.90
2022-08-02T03:07:45.457Z,99.90
2022-08-02T03:10:13.643Z,99.90
2022-08-02T03:12:41.843Z,99.90
2022-08-02T03:15:13.196Z,99.90
2022-08-02T03:17:47.219Z,99.90
2022-08-02T03:20:17.081Z,99.90
2022-08-02T03:22:46.371Z,99.90
2022-08-02T03:25:16.518Z,99.90
2022-08-02T03:27:45.620Z,99.90
2022-08-02T03:30:15.546Z,99.90
2022-08-02T03:32:48.921Z,99.90
2022-08-02T03:35:23.682Z,99.90
2022-08-02T03:37:53.975Z,99.90
2022-08-02T03:40:23.067Z,99.90
2022-08-02T03:42:52.081Z,99.90
2022-08-02T03:45:21.034Z,99.90
2022-08-02T03:47:51.765Z,99.90
2022-08-02T03:50:22.797Z,99.90
2022-08-02T03:52:51.316Z,99.90
2022-08-02T03:55:19.642Z,99.90
2022-08-02T03:57:47.726Z,99.90
2022-08-02T04:00:22.742Z,99.90
2022-08-02T04:02:52.672Z,99.90
2022-08-02T04:05:21.623Z,99.90
2022-08-02T04:08:01.214Z,99.90
2022-08-02T04:10:54.038Z,99.90
2022-08-02T04:13:27.441Z,99.90
2022-08-02T04:16:04.894Z,99.90
2022-08-02T04:18:42.313Z,99.90
2022-08-02T04:21:14.755Z,99.90
2022-08-02T04:23:45.896Z,99.90
2022-08-02T04:26:14.909Z,99.90
2022-08-02T04:28:44.827Z,99.90
2022-08-02T04:31:13.115Z,99.90
2022-08-02T04:33:43.675Z,99.90
2022-08-02T04:36:14.150Z,99.90
2022-08-02T04:38:42.637Z,99.90
2022-08-02T04:41:10.827Z,99.90
2022-08-02T04:43:38.906Z,99.90
2022-08-02T04:46:06.977Z,99.90
2022-08-02T04:48:35.115Z,99.90
2022-08-02T04:51:04.648Z,99.90
2022-08-02T04:53:32.721Z,99.90
2022-08-02T04:56:00.974Z,99.90
2022-08-02T04:58:44.318Z,99.90
2022-08-02T05:01:12.508Z,99.90
2022-08-02T05:03:40.584Z,99.90
2022-08-02T05:06:19.569Z,99.90
2022-08-02T05:08:52.358Z,99.90
2022-08-02T05:11:21.379Z,99.90
2022-08-02T05:13:58.804Z,99.90
2022-08-02T05:16:30.751Z,99.90
2022-08-02T05:19:00.388Z,99.90
2022-08-02T05:21:31.607Z,99.90
2022-08-02T05:23:59.854Z,99.90
2022-08-02T05:26:27.941Z,99.90
2022-08-02T05:28:55.983Z,99.90
2022-08-02T05:31:24.120Z,99.90
2022-08-02T05:33:52.357Z,99.90
2022-08-02T05:36:21.363Z,99.90
2022-08-02T05:38:51.859Z,99.90
2022-08-02T05:41:20.077Z,99.90
2022-08-02T05:43:48.514Z,99.90
2022-08-02T05:46:16.641Z,99.90
2022-08-02T05:48:45.573Z,99.90
2022-08-02T05:51:30.773Z,99.90
2022-08-02T05:54:12.390Z,99.90
2022-08-02T05:56:48.361Z,99.90
2022-08-02T05:59:27.609Z,99.90
2022-08-02T06:02:03.739Z,99.90
2022-08-02T06:04:42.080Z,99.90
2022-08-02T06:07:13.096Z,99.90
2022-08-02T06:09:44.439Z,99.90
2022-08-02T06:12:15.850Z,99.90
2022-08-02T06:14:44.814Z,99.90
2022-08-02T06:17:13.503Z,99.90
2022-08-02T06:19:52.019Z,99.90
2022-08-02T06:22:30.672Z,99.90
2022-08-02T06:25:05.141Z,99.90
2022-08-02T06:27:34.256Z,99.90
2022-08-02T06:30:03.988Z,99.90
2022-08-02T06:32:34.185Z,99.90
2022-08-02T06:35:06.155Z,99.90
2022-08-02T06:37:42.052Z,99.90
2022-08-02T06:40:22.630Z,99.90
2022-08-02T06:43:01.780Z,99.90
2022-08-02T06:45:29.974Z,99.90
2022-08-02T06:47:58.079Z,99.90
2022-08-02T06:50:26.289Z,99.90
2022-08-02T06:52:54.782Z,98.70
2022-08-02T06:55:24.191Z,98.40
2022-08-02T06:57:53.820Z,98.20
2022-08-02T07:00:22.017Z,96.30
2022-08-02T07:02:50.953Z,95.10
2022-08-02T07:05:19.641Z,94.30
2022-08-02T07:07:47.789Z,92.90
2022-08-02T07:10:18.166Z,92.80
2022-08-02T07:12:47.611Z,92.00
2022-08-02T07:15:16.350Z,91.20
2022-08-02T07:17:44.385Z,90.50
2022-08-02T07:20:13.460Z,87.90
2022-08-02T07:22:42.342Z,83.90
2022-08-02T07:25:11.311Z,83.50
2022-08-02T07:27:39.354Z,82.40
2022-08-02T07:30:10.883Z,82.60
2022-08-02T07:32:39.391Z,77.00
2022-08-02T07:35:09.103Z,77.10
2022-08-02T07:37:54.786Z,76.20
2022-08-02T07:40:28.196Z,74.60
2022-08-02T07:43:03.536Z,76.70
2022-08-02T07:45:36.006Z,75.20
2022-08-02T07:48:13.667Z,73.10
2022-08-02T07:50:41.873Z,71.00
2022-08-02T07:53:09.956Z,64.90
2022-08-02T07:55:40.930Z,63.00
2022-08-02T07:58:11.159Z,63.80
2022-08-02T08:00:43.838Z,59.90
2022-08-02T08:03:12.307Z,59.50
2022-08-02T08:05:40.727Z,58.00
2022-08-02T08:08:11.225Z,57.10
2022-08-02T08:10:43.761Z,56.70
2022-08-02T08:13:11.787Z,53.90
2022-08-02T08:15:41.225Z,55.40
2022-08-02T08:18:09.452Z,55.70
2022-08-02T08:20:39.676Z,54.20
2022-08-02T08:23:07.767Z,53.00
2022-08-02T08:25:39.657Z,52.70
2022-08-02T08:28:09.675Z,52.60
2022-08-02T08:30:37.893Z,53.10
2022-08-02T08:33:07.694Z,51.60
2022-08-02T08:35:36.354Z,51.10
2022-08-02T08:38:07.743Z,51.10
2022-08-02T08:40:37.910Z,50.50
2022-08-02T08:43:06.403Z,49.00
2022-08-02T08:45:34.498Z,49.10
2022-08-02T08:48:15.607Z,47.00
2022-08-02T08:51:02.673Z,46.70
2022-08-02T08:53:36.343Z,46.40
2022-08-02T08:56:06.077Z,47.60
2022-08-02T08:58:34.483Z,47.40
2022-08-02T09:01:02.846Z,46.70
2022-08-02T09:03:34.078Z,46.70
2022-08-02T09:06:04.922Z,44.60
2022-08-02T09:08:33.197Z,44.80
2022-08-02T09:11:01.511Z,43.80
2022-08-02T09:13:45.499Z,44.60
2022-08-02T09:16:15.029Z,44.40
2022-08-02T09:18:47.577Z,46.50
2022-08-02T09:21:18.589Z,45.20
2022-08-02T09:23:49.181Z,46.00
2022-08-02T09:26:20.503Z,44.70
2022-08-02T09:28:54.270Z,43.90
2022-08-02T09:31:24.477Z,43.50
2022-08-02T09:33:56.133Z,42.90
2022-08-02T09:36:25.243Z,44.50
2022-08-02T09:39:01.398Z,44.70
2022-08-02T09:41:31.193Z,44.30
2022-08-02T09:44:05.495Z,44.10
2022-08-02T09:46:38.737Z,44.20
2022-08-02T09:49:11.490Z,42.50
2022-08-02T09:51:41.864Z,43.20
2022-08-02T09:54:12.773Z,44.60
2022-08-02T09:56:45.610Z,44.00
2022-08-02T09:59:15.483Z,44.00
2022-08-02T10:01:51.701Z,43.30
2022-08-02T10:04:33.895Z,43.10
2022-08-02T10:07:05.000Z,41.90
2022-08-02T10:09:33.761Z,43.40
2022-08-02T10:12:03.533Z,42.90
2022-08-02T10:14:35.689Z,42.50
2022-08-02T10:17:05.894Z,43.30
2022-08-02T10:20:00.319Z,43.60
2022-08-02T10:22:25.512Z,43.80
2022-08-02T10:24:54.968Z,43.20
2022-08-02T10:27:25.642Z,45.30
2022-08-02T10:29:59.922Z,44.10
2022-08-02T10:32:32.945Z,43.10
2022-08-02T10:35:18.863Z,44.20
2022-08-02T10:37:55.241Z,43.50
2022-08-02T10:40:27.335Z,43.80
2022-08-02T10:42:59.421Z,46.00
2022-08-02T10:45:29.434Z,43.80
2022-08-02T10:48:17.651Z,42.60
2022-08-02T10:50:56.934Z,42.20
2022-08-02T10:53:31.246Z,42.80
2022-08-02T10:56:01.967Z,45.20
2022-08-02T10:58:32.870Z,44.60
2022-08-02T11:01:06.105Z,46.20
2022-08-02T11:03:40.760Z,45.00
2022-08-02T11:06:25.675Z,43.60
2022-08-02T11:09:31.445Z,45.60
2022-08-02T11:12:06.589Z,47.30
2022-08-02T11:14:37.294Z,47.00
2022-08-02T11:17:23.273Z,48.00
2022-08-02T11:20:20.344Z,48.60
2022-08-02T11:22:53.337Z,51.00
2022-08-02T11:26:02.624Z,49.10
2022-08-02T11:28:26.161Z,52.10
2022-08-02T11:31:02.785Z,52.90
2022-08-02T11:33:36.850Z,50.80
2022-08-02T11:36:08.065Z,49.70
2022-08-02T11:38:37.552Z,51.90
2022-08-02T11:41:06.023Z,52.30
2022-08-02T11:43:39.472Z,50.10
2022-08-02T11:46:15.784Z,52.30
2022-08-02T11:48:45.084Z,50.70
2022-08-02T11:51:15.782Z,50.90
2022-08-02T11:53:48.677Z,51.20
2022-08-02T11:56:25.324Z,50.50
2022-08-02T11:59:07.310Z,50.10
2022-08-02T12:01:45.187Z,50.60
2022-08-02T12:04:22.730Z,50.70
2022-08-02T12:07:00.088Z,50.50
2022-08-02T12:09:31.300Z,50.90
2022-08-02T12:12:01.353Z,51.20
2022-08-02T12:14:31.354Z,52.50
2022-08-02T12:17:17.480Z,52.20
2022-08-02T12:19:45.722Z,51.10
2022-08-02T12:22:18.577Z,50.90
2022-08-02T12:24:51.047Z,51.40
2022-08-02T12:27:37.114Z,50.90
2022-08-02T12:30:11.477Z,51.50
2022-08-02T12:32:40.419Z,51.40
2022-08-02T12:35:12.128Z,51.70
2022-08-02T12:37:42.836Z,52.20
2022-08-02T12:40:28.336Z,51.50
2022-08-02T12:43:00.506Z,51.70
2022-08-02T12:45:41.196Z,51.00
2022-08-02T12:48:10.654Z,51.70
2022-08-02T12:50:39.733Z,51.80
2022-08-02T12:53:13.658Z,51.90
2022-08-02T12:55:59.593Z,51.60
2022-08-02T12:58:32.009Z,52.10
2022-08-02T13:01:01.961Z,51.70
2022-08-02T13:04:10.629Z,51.20
2022-08-02T13:06:40.825Z,51.00
2022-08-02T13:09:17.201Z,50.50
2022-08-02T13:11:47.012Z,51.40
2022-08-02T13:14:16.136Z,51.70
2022-08-02T13:16:47.738Z,50.70
2022-08-02T13:19:16.205Z,49.60
2022-08-02T13:22:01.924Z,50.30
2022-08-02T13:24:56.700Z,50.10
2022-08-02T13:27:28.609Z,50.30
2022-08-02T13:29:58.775Z,51.50
2022-08-02T13:32:28.853Z,50.70
2022-08-02T13:34:57.638Z,50.80
2022-08-02T13:37:26.273Z,51.40
2022-08-02T13:40:19.845Z,51.20
2022-08-02T13:42:44.267Z,51.00
2022-08-02T13:45:14.227Z,51.00
2022-08-02T13:48:04.481Z,50.70
2022-08-02T13:50:31.661Z,51.00
2022-08-02T13:52:59.701Z,52.30
2022-08-02T13:55:28.137Z,50.40
2022-08-02T13:57:57.732Z,49.90
2022-08-02T14:00:35.246Z,50.00
2022-08-02T14:03:07.942Z,49.90
2022-08-02T14:05:47.756Z,49.90
2022-08-02T14:08:18.329Z,50.20
2022-08-02T14:10:47.807Z,49.30
2022-08-02T14:13:17.382Z,49.70
2022-08-02T14:15:45.794Z,50.30
2022-08-02T14:18:15.215Z,49.40
2022-08-02T14:20:44.039Z,49.70
2022-08-02T14:23:12.473Z,49.30
2022-08-02T14:25:40.752Z,49.40
2022-08-02T14:28:08.910Z,49.60
2022-08-02T14:30:38.673Z,49.40
2022-08-02T14:33:07.099Z,49.70
2022-08-02T14:35:35.588Z,49.30
2022-08-02T14:38:03.645Z,50.00
2022-08-02T14:40:32.222Z,49.60
2022-08-02T14:43:01.231Z,49.90
2022-08-02T14:45:39.978Z,50.30
2022-08-02T14:48:11.906Z,50.00
2022-08-02T14:50:40.754Z,50.00
2022-08-02T14:53:11.952Z,50.40
2022-08-02T14:55:42.387Z,49.70
2022-08-02T14:58:10.672Z,50.20
2022-08-02T15:00:41.278Z,49.30
2022-08-02T15:03:11.510Z,49.90
2022-08-02T15:05:39.750Z,49.50
2022-08-02T15:08:08.094Z,50.00
2022-08-02T15:10:36.613Z,50.60
2022-08-02T15:13:04.963Z,49.80
2022-08-02T15:15:33.301Z,49.50
2022-08-02T15:18:13.980Z,49.70
2022-08-02T15:20:55.224Z,49.20
2022-08-02T15:23:37.270Z,48.90
2022-08-02T15:26:06.182Z,49.50
2022-08-02T15:28:35.160Z,48.80
2022-08-02T15:31:03.306Z,49.20
2022-08-02T15:33:33.876Z,48.80
2022-08-02T15:36:01.950Z,49.00
2022-08-02T15:38:30.027Z,49.00
2022-08-02T15:40:58.136Z,48.80
2022-08-02T15:43:26.327Z,49.30
2022-08-02T15:45:54.841Z,49.70
2022-08-02T15:48:22.960Z,50.10
2022-08-02T15:50:52.395Z,49.10
2022-08-02T15:53:20.535Z,48.80
2022-08-02T15:56:04.365Z,48.40
2022-08-02T15:58:34.811Z,49.20
2022-08-02T16:01:12.600Z,48.60
2022-08-02T16:03:40.775Z,48.60
2022-08-02T16:06:10.212Z,48.20
2022-08-02T16:08:38.275Z,48.30
2022-08-02T16:11:12.798Z,48.80
2022-08-02T16:13:54.799Z,48.00
2022-08-02T16:16:26.552Z,48.20
2022-08-02T16:18:55.302Z,48.20
2022-08-02T16:21:26.908Z,50.80
2022-08-02T16:24:01.644Z,49.10
2022-08-02T16:26:33.963Z,48.20
2022-08-02T16:29:04.889Z,48.00
2022-08-02T16:31:33.132Z,49.00
2022-08-02T16:34:01.233Z,48.70
2022-08-02T16:36:30.994Z,48.10
2022-08-02T16:38:59.251Z,47.90
2022-08-02T16:41:52.161Z,49.70
2022-08-02T16:44:15.618Z,48.60
2022-08-02T16:46:45.578Z,49.20
2022-08-02T16:50:06.636Z,48.60
2022-08-02T16:52:03.316Z,50.50
2022-08-02T16:54:31.599Z,52.40
2022-08-02T16:56:59.718Z,51.50
2022-08-02T16:59:27.737Z,49.30
2022-08-02T17:02:15.242Z,51.40
2022-08-02T17:04:47.381Z,51.80
2022-08-02T17:08:07.083Z,54.20
2022-08-02T17:10:09.139Z,50.70
2022-08-02T17:12:39.095Z,50.70
2022-08-02T17:16:08.454Z,49.70
2022-08-02T17:17:56.952Z,48.80
2022-08-02T17:20:25.202Z,48.40
2022-08-02T17:22:54.687Z,50.50
2022-08-02T17:25:24.831Z,51.70
2022-08-02T17:27:55.883Z,54.90
2022-08-02T17:30:26.467Z,56.50
2022-08-02T17:32:57.885Z,57.60
2022-08-02T17:35:43.898Z,57.50
2022-08-02T17:38:25.881Z,58.20
2022-08-02T17:40:55.192Z,58.70
2022-08-02T17:43:29.101Z,58.10
2022-08-02T17:46:00.198Z,59.40
2022-08-02T17:48:54.884Z,58.30
2022-08-02T17:51:33.158Z,60.60
2022-08-02T17:54:13.837Z,62.40
2022-08-02T17:56:43.909Z,63.60
2022-08-02T17:59:20.817Z,62.90
2022-08-02T18:01:53.132Z,64.00
2022-08-02T18:04:27.697Z,64.40
2022-08-02T18:06:58.143Z,66.20
2022-08-02T18:09:28.091Z,67.50
2022-08-02T18:11:56.471Z,66.50
2022-08-02T18:14:26.398Z,68.70
2022-08-02T18:16:54.894Z,68.70
2022-08-02T18:19:23.040Z,70.00
2022-08-02T18:22:02.874Z,70.80
2022-08-02T18:24:32.516Z,73.00
2022-08-02T18:27:00.594Z,73.40
2022-08-02T18:29:30.177Z,74.00
2022-08-02T18:32:11.753Z,75.50
2022-08-02T18:34:40.504Z,75.70
2022-08-02T18:37:12.652Z,76.40
2022-08-02T18:39:42.144Z,75.90
2022-08-02T18:42:19.594Z,76.30
2022-08-02T18:44:48.137Z,77.30
2022-08-02T18:47:16.451Z,78.00
2022-08-02T18:49:47.311Z,79.10
2022-08-02T18:52:31.490Z,79.00
2022-08-02T18:55:01.345Z,79.40
2022-08-02T18:58:01.874Z,78.60
2022-08-02T19:00:20.468Z,80.20
2022-08-02T19:02:48.839Z,81.40
2022-08-02T19:05:16.962Z,80.40
2022-08-02T19:07:50.419Z,80.30
2022-08-02T19:10:21.392Z,80.10
2022-08-02T19:12:51.615Z,81.40
2022-08-02T19:15:20.186Z,81.60
2022-08-02T19:17:53.556Z,81.50
2022-08-02T19:20:24.010Z,80.90
2022-08-02T19:22:53.782Z,81.60
2022-08-02T19:25:28.002Z,83.30
2022-08-02T19:27:57.027Z,83.40
2022-08-02T19:30:25.941Z,84.10
2022-08-02T19:32:59.611Z,85.30
2022-08-02T19:35:34.203Z,86.40
2022-08-02T19:38:10.417Z,87.20
2022-08-02T19:40:42.937Z,89.30
2022-08-02T19:44:25.304Z,90.60
2022-08-02T19:46:00.579Z,90.90
2022-08-02T19:48:29.015Z,90.80
2022-08-02T19:50:59.492Z,90.80
2022-08-02T19:53:47.826Z,91.60
2022-08-02T19:56:24.808Z,93.10
2022-08-02T19:58:55.588Z,93.40
2022-08-02T20:01:36.987Z,93.00
2022-08-02T20:04:13.505Z,93.20
2022-08-02T20:06:45.424Z,93.70
2022-08-02T20:09:16.544Z,94.10
2022-08-02T20:11:46.818Z,93.80
2022-08-02T20:14:26.737Z,94.30
2022-08-02T20:16:56.924Z,95.30
2022-08-02T20:19:29.098Z,95.10
2022-08-02T20:24:46.831Z,95.30
2022-08-02T20:27:23.039Z,95.80
2022-08-02T20:29:54.081Z,95.90
2022-08-02T20:32:24.840Z,95.80
2022-08-02T20:34:53.409Z,96.10
2022-08-02T20:38:00.257Z,96.00
2022-08-02T20:40:16.650Z,97.00
2022-08-02T20:42:48.493Z,96.70
2022-08-02T20:45:17.047Z,96.70
2022-08-02T20:47:45.848Z,96.40
2022-08-02T20:50:36.817Z,97.50
2022-08-02T20:53:06.165Z,97.50
2022-08-02T20:55:35.987Z,96.70
2022-08-02T20:58:05.987Z,96.80
2022-08-02T21:00:40.697Z,97.10
2022-08-02T21:03:10.104Z,97.60
2022-08-02T21:05:54.729Z,97.50
2022-08-02T21:08:24.345Z,97.30
2022-08-02T21:10:53.285Z,97.50
2022-08-02T21:13:26.148Z,97.50
2022-08-02T21:15:58.057Z,97.90
2022-08-02T21:18:40.264Z,97.70
2022-08-02T21:21:10.332Z,98.30
2022-08-02T21:23:44.960Z,98.00
2022-08-02T21:29:09.108Z,98.10
2022-08-02T21:31:37.198Z,98.30
2022-08-02T21:34:07.615Z,97.70
2022-08-02T21:36:51.157Z,97.90
2022-08-02T21:39:20.191Z,98.10
2022-08-02T21:41:48.975Z,98.20
2022-08-02T21:44:20.764Z,98.60
2022-08-02T21:46:51.168Z,98.10
2022-08-02T21:49:20.881Z,98.20
2022-08-02T21:51:55.977Z,98.80
2022-08-02T21:54:24.105Z,99.00
2022-08-02T21:56:54.004Z,99.20
2022-08-02T22:02:13.365Z,99.70
2022-08-02T22:04:47.784Z,99.90
2022-08-02T22:07:17.788Z,99.90
2022-08-02T22:09:52.593Z,99.80
2022-08-02T22:12:21.955Z,99.80
2022-08-02T22:14:56.561Z,99.80
2022-08-02T22:17:50.437Z,99.90
2022-08-02T22:20:19.859Z,99.90
2022-08-02T22:22:50.352Z,99.80
2022-08-02T22:25:26.514Z,99.70
2022-08-02T22:28:35.182Z,99.90
2022-08-02T22:30:56.670Z,99.90
2022-08-02T22:33:47.061Z,99.90
2022-08-02T22:36:28.913Z,99.90
2022-08-02T22:38:57.365Z,99.90
2022-08-02T22:41:25.472Z,99.70
2022-08-02T22:44:13.703Z,99.90
2022-08-02T22:46:44.239Z,99.90
2022-08-02T22:49:37.131Z,99.90
2022-08-02T22:52:00.446Z,99.90
2022-08-02T22:54:30.362Z,99.90
2022-08-02T22:57:00.025Z,99.90
2022-08-02T22:58:55.202Z,94.60
2022-08-02T22:59:11.149Z,98.80
2022-08-02T22:59:39.337Z,99.90
2022-08-02T23:02:10.136Z,99.90
2022-08-02T23:04:38.847Z,99.90
2022-08-02T23:07:07.255Z,99.90
2022-08-02T23:09:35.386Z,99.90
2022-08-02T23:12:03.694Z,99.90
2022-08-02T23:14:32.202Z,99.90
2022-08-02T23:17:17.888Z,99.90
2022-08-02T23:19:53.050Z,99.90
2022-08-02T23:22:29.229Z,99.90
2022-08-02T23:25:00.692Z,99.90
2022-08-02T23:27:29.389Z,99.90
2022-08-02T23:29:57.731Z,99.90
2022-08-02T23:32:26.169Z,99.90
2022-08-02T23:34:55.869Z,99.90
2022-08-02T23:37:24.430Z,99.90
2022-08-02T23:39:52.708Z,99.90
2022-08-02T23:42:20.858Z,99.90
2022-08-02T23:44:48.978Z,99.90
2022-08-02T23:47:17.786Z,99.90
2022-08-02T23:49:46.103Z,99.90
2022-08-02T23:52:15.780Z,99.90
2022-08-02T23:54:43.902Z,99.90
2022-08-02T23:57:20.102Z,99.90
2022-08-02T23:59:50.919Z,99.90
